createdAt,value
2019-03-31T00:00:24.811Z,12.30
2019-03-31T00:01:24.818Z,12.25
2019-03-31T00:02:24.791Z,12.28
2019-03-31T00:03:24.790Z,12.23
2019-03-31T00:04:24.773Z,12.28
2019-03-31T00:05:24.779Z,12.29
2019-03-31T00:06:24.757Z,12.28
2019-03-31T00:07:24.734Z,12.22
2019-03-31T00:08:24.727Z,12.32
2019-03-31T00:09:24.714Z,12.18
2019-03-31T00:10:24.745Z,12.18
2019-03-31T00:11:24.693Z,12.14
2019-03-31T00:12:24.686Z,12.13
2019-03-31T00:13:24.674Z,12.11
2019-03-31T00:14:24.663Z,12.08
2019-03-31T00:15:24.669Z,12.03
2019-03-31T00:16:24.701Z,12.03
2019-03-31T00:17:24.630Z,12.00
2019-03-31T00:18:24.629Z,12.03
2019-03-31T00:19:24.619Z,11.99
2019-03-31T00:20:24.616Z,11.97
2019-03-31T00:21:24.584Z,12.04
2019-03-31T00:22:24.614Z,11.87
2019-03-31T00:23:24.563Z,11.93
2019-03-31T00:24:24.561Z,11.95
2019-03-31T00:25:24.561Z,12.03
2019-03-31T00:26:24.538Z,11.97
2019-03-31T00:27:24.521Z,11.95
2019-03-31T00:28:24.514Z,11.93
2019-03-31T00:29:24.501Z,12.00
2019-03-31T00:30:24.527Z,11.87
2019-03-31T00:31:24.493Z,11.95
2019-03-31T00:32:24.466Z,11.99
2019-03-31T00:33:24.456Z,11.99
2019-03-31T00:34:24.452Z,11.89
2019-03-31T00:35:24.436Z,11.82
2019-03-31T00:36:24.445Z,11.85
2019-03-31T00:37:24.421Z,11.84
2019-03-31T00:38:24.400Z,11.80
2019-03-31T00:39:24.397Z,11.85
2019-03-31T00:40:24.408Z,11.82
2019-03-31T00:41:24.400Z,11.77
2019-03-31T00:42:24.361Z,11.88
2019-03-31T00:43:24.354Z,11.84
2019-03-31T00:44:24.338Z,11.74
2019-03-31T00:45:24.329Z,11.77
2019-03-31T00:46:24.344Z,11.77
2019-03-31T00:47:24.311Z,11.70
2019-03-31T00:48:24.298Z,11.84
2019-03-31T00:49:24.292Z,11.70
2019-03-31T00:50:24.299Z,11.71
2019-03-31T00:51:24.313Z,11.66
2019-03-31T00:52:24.257Z,11.67
2019-03-31T00:53:24.294Z,11.61
2019-03-31T00:54:27.575Z,11.62
2019-03-31T00:55:24.222Z,11.59
2019-03-31T00:56:24.221Z,11.55
2019-03-31T00:57:24.233Z,11.58
2019-03-31T00:58:24.190Z,11.58
2019-03-31T00:59:24.200Z,11.61
2019-03-31T01:00:24.180Z,11.59
2019-03-31T01:01:35.732Z,11.52
2019-03-31T01:02:25.167Z,11.54
2019-03-31T01:03:24.134Z,11.55
2019-03-31T01:04:24.131Z,11.46
2019-03-31T01:05:24.115Z,11.43
2019-03-31T01:06:24.115Z,11.43
2019-03-31T01:07:24.112Z,11.43
2019-03-31T01:08:24.083Z,11.46
2019-03-31T01:09:24.072Z,11.46
2019-03-31T01:10:24.063Z,11.38
2019-03-31T01:11:24.049Z,11.30
2019-03-31T01:12:24.111Z,11.38
2019-03-31T01:13:24.028Z,11.34
2019-03-31T01:14:24.024Z,11.40
2019-03-31T01:15:24.034Z,11.34
2019-03-31T01:16:23.995Z,11.33
2019-03-31T01:17:24.005Z,11.36
2019-03-31T01:18:31.521Z,11.27
2019-03-31T01:19:31.499Z,11.27
2019-03-31T01:20:32.514Z,11.31
2019-03-31T01:21:23.943Z,11.25
2019-03-31T01:22:32.948Z,11.25
2019-03-31T01:23:31.509Z,11.30
2019-03-31T01:24:23.968Z,11.28
2019-03-31T01:25:31.445Z,11.22
2019-03-31T01:26:31.414Z,11.18
2019-03-31T01:27:32.588Z,11.08
2019-03-31T01:28:31.444Z,11.13
2019-03-31T01:29:23.863Z,11.09
2019-03-31T01:30:23.842Z,11.08
2019-03-31T01:31:23.832Z,10.90
2019-03-31T01:32:23.839Z,10.86
2019-03-31T01:33:23.809Z,10.87
2019-03-31T01:34:23.802Z,10.83
2019-03-31T01:35:23.810Z,10.80
2019-03-31T01:36:23.778Z,10.82
2019-03-31T01:37:23.830Z,10.82
2019-03-31T01:38:23.774Z,10.70
2019-03-31T01:39:23.841Z,10.68
2019-03-31T01:40:23.771Z,10.68
2019-03-31T01:41:23.724Z,10.61
2019-03-31T01:42:23.765Z,10.64
2019-03-31T01:43:23.704Z,10.70
2019-03-31T01:44:23.692Z,10.58
2019-03-31T01:45:23.699Z,10.55
2019-03-31T01:46:23.715Z,10.52
2019-03-31T01:47:23.690Z,10.62
2019-03-31T01:48:23.650Z,10.48
2019-03-31T01:49:23.661Z,10.52
2019-03-31T01:50:23.630Z,10.58
2019-03-31T01:51:23.616Z,10.48
2019-03-31T01:52:23.641Z,10.46
2019-03-31T01:53:23.592Z,10.45
2019-03-31T01:54:33.411Z,10.39
2019-03-31T01:55:31.125Z,10.43
2019-03-31T01:56:31.107Z,10.45
2019-03-31T01:57:33.291Z,10.41
2019-03-31T01:58:23.540Z,10.38
2019-03-31T01:59:23.526Z,10.43
2019-03-31T02:00:23.552Z,10.41
2019-03-31T02:01:23.508Z,10.39
2019-03-31T02:02:23.519Z,10.41
2019-03-31T02:03:23.493Z,10.43
2019-03-31T02:04:23.473Z,10.43
2019-03-31T02:05:23.472Z,10.41
2019-03-31T02:06:23.456Z,10.39
2019-03-31T02:07:23.456Z,10.48
2019-03-31T02:08:23.461Z,10.39
2019-03-31T02:09:23.428Z,10.41
2019-03-31T02:10:23.407Z,10.43
2019-03-31T02:11:23.416Z,10.35
2019-03-31T02:12:23.395Z,10.34
2019-03-31T02:13:23.394Z,10.27
2019-03-31T02:14:23.367Z,10.30
2019-03-31T02:15:23.355Z,10.26
2019-03-31T02:16:23.352Z,10.26
2019-03-31T02:17:23.334Z,10.35
2019-03-31T02:18:23.340Z,10.24
2019-03-31T02:19:23.332Z,10.28
2019-03-31T02:20:23.302Z,10.23
2019-03-31T02:21:23.292Z,10.23
2019-03-31T02:22:23.277Z,10.17
2019-03-31T02:23:23.301Z,10.20
2019-03-31T02:24:23.257Z,10.12
2019-03-31T02:25:23.276Z,10.23
2019-03-31T02:26:23.235Z,10.23
2019-03-31T02:27:23.253Z,10.09
2019-03-31T02:28:23.301Z,10.20
2019-03-31T02:29:23.214Z,10.12
2019-03-31T02:30:23.218Z,10.06
2019-03-31T02:31:23.188Z,10.06
2019-03-31T02:32:24.866Z,10.16
2019-03-31T02:33:23.220Z,10.06
2019-03-31T02:34:23.151Z,10.17
2019-03-31T02:35:23.162Z,10.18
2019-03-31T02:36:23.130Z,10.12
2019-03-31T02:37:23.144Z,10.14
2019-03-31T02:38:23.110Z,10.17
2019-03-31T02:39:23.211Z,10.21
2019-03-31T02:40:23.085Z,10.24
2019-03-31T02:41:23.077Z,10.10
2019-03-31T02:42:23.100Z,10.21
2019-03-31T02:43:23.061Z,10.17
2019-03-31T02:44:23.051Z,10.12
2019-03-31T02:45:23.078Z,10.16
2019-03-31T02:46:23.028Z,10.18
2019-03-31T02:47:23.043Z,10.23
2019-03-31T02:48:23.000Z,10.12
2019-03-31T02:49:22.998Z,10.20
2019-03-31T02:50:23.001Z,10.16
2019-03-31T02:51:22.965Z,10.16
2019-03-31T02:52:22.961Z,10.20
2019-03-31T02:53:22.944Z,10.23
2019-03-31T02:54:22.937Z,10.18
2019-03-31T02:55:22.989Z,10.20
2019-03-31T02:56:22.909Z,10.17
2019-03-31T02:57:22.897Z,10.20
2019-03-31T02:58:22.890Z,10.17
2019-03-31T02:59:22.884Z,10.17
2019-03-31T03:00:22.891Z,10.14
2019-03-31T03:01:22.893Z,10.16
2019-03-31T03:02:40.238Z,10.18
2019-03-31T03:03:23.947Z,10.12
2019-03-31T03:04:22.825Z,10.17
2019-03-31T03:05:22.818Z,10.24
2019-03-31T03:06:22.853Z,10.23
2019-03-31T03:07:22.812Z,10.21
2019-03-31T03:08:30.329Z,10.20
2019-03-31T03:09:30.333Z,10.18
2019-03-31T03:10:22.764Z,10.27
2019-03-31T03:11:22.776Z,10.20
2019-03-31T03:12:22.739Z,10.20
2019-03-31T03:13:22.767Z,10.27
2019-03-31T03:14:22.716Z,10.20
2019-03-31T03:15:22.709Z,10.26
2019-03-31T03:16:22.731Z,10.27
2019-03-31T03:17:22.684Z,10.18
2019-03-31T03:18:22.674Z,10.24
2019-03-31T03:19:22.667Z,10.21
2019-03-31T03:20:22.657Z,10.20
2019-03-31T03:21:31.385Z,10.23
2019-03-31T03:22:22.647Z,10.24
2019-03-31T03:23:22.623Z,10.18
2019-03-31T03:24:22.626Z,10.18
2019-03-31T03:25:22.599Z,10.23
2019-03-31T03:26:22.586Z,10.14
2019-03-31T03:27:22.612Z,10.23
2019-03-31T03:28:22.582Z,10.16
2019-03-31T03:29:22.559Z,10.20
2019-03-31T03:30:22.703Z,10.18
2019-03-31T03:31:22.632Z,10.14
2019-03-31T03:32:22.593Z,10.14
2019-03-31T03:33:22.528Z,10.16
2019-03-31T03:34:22.513Z,10.17
2019-03-31T03:35:22.514Z,10.12
2019-03-31T03:36:22.504Z,10.09
2019-03-31T03:37:22.469Z,10.14
2019-03-31T03:38:22.546Z,10.16
2019-03-31T03:39:22.448Z,10.10
2019-03-31T03:40:22.447Z,10.17
2019-03-31T03:41:22.436Z,10.14
2019-03-31T03:42:22.455Z,10.10
2019-03-31T03:43:22.435Z,10.08
2019-03-31T03:44:22.391Z,10.16
2019-03-31T03:45:22.408Z,10.16
2019-03-31T03:46:22.378Z,10.10
2019-03-31T03:47:22.380Z,10.18
2019-03-31T03:48:22.371Z,10.18
2019-03-31T03:49:22.352Z,10.17
2019-03-31T03:50:22.328Z,10.20
2019-03-31T03:51:22.343Z,10.23
2019-03-31T03:52:22.353Z,10.20
2019-03-31T03:53:22.335Z,10.17
2019-03-31T03:54:22.291Z,10.20
2019-03-31T03:55:22.291Z,10.21
2019-03-31T03:56:22.266Z,10.20
2019-03-31T03:57:22.271Z,10.12
2019-03-31T03:58:22.258Z,10.10
2019-03-31T03:59:22.248Z,10.12
2019-03-31T04:00:22.226Z,10.03
2019-03-31T04:01:22.245Z,9.99
2019-03-31T04:02:22.222Z,9.98
2019-03-31T04:03:30.487Z,10.01
2019-03-31T04:04:23.184Z,9.84
2019-03-31T04:05:22.168Z,9.90
2019-03-31T04:06:22.163Z,9.84
2019-03-31T04:07:22.163Z,9.80
2019-03-31T04:08:22.136Z,9.84
2019-03-31T04:09:22.137Z,9.72
2019-03-31T04:10:22.126Z,9.78
2019-03-31T04:11:22.261Z,9.70
2019-03-31T04:12:22.134Z,9.67
2019-03-31T04:13:22.300Z,9.66
2019-03-31T04:14:22.077Z,9.66
2019-03-31T04:15:22.077Z,9.66
2019-03-31T04:16:22.058Z,9.72
2019-03-31T04:17:22.090Z,9.73
2019-03-31T04:18:22.032Z,9.67
2019-03-31T04:19:22.018Z,9.70
2019-03-31T04:20:22.013Z,9.67
2019-03-31T04:21:22.016Z,9.70
2019-03-31T04:22:22.012Z,9.70
2019-03-31T04:23:21.982Z,9.66
2019-03-31T04:24:21.991Z,9.63
2019-03-31T04:25:21.954Z,9.69
2019-03-31T04:26:21.944Z,9.67
2019-03-31T04:27:21.980Z,9.62
2019-03-31T04:28:21.932Z,9.66
2019-03-31T04:29:21.917Z,9.67
2019-03-31T04:30:21.900Z,9.65
2019-03-31T04:31:21.887Z,9.73
2019-03-31T04:32:21.900Z,9.69
2019-03-31T04:33:21.881Z,9.69
2019-03-31T04:34:21.858Z,9.65
2019-03-31T04:35:21.857Z,9.67
2019-03-31T04:36:21.836Z,9.66
2019-03-31T04:37:21.839Z,9.62
2019-03-31T04:38:21.815Z,9.66
2019-03-31T04:39:21.814Z,9.69
2019-03-31T04:40:21.797Z,9.63
2019-03-31T04:41:21.781Z,9.66
2019-03-31T04:42:21.809Z,9.55
2019-03-31T04:43:21.757Z,9.65
2019-03-31T04:44:21.746Z,9.55
2019-03-31T04:45:21.741Z,9.63
2019-03-31T04:46:21.739Z,9.55
2019-03-31T04:47:21.738Z,9.67
2019-03-31T04:48:21.705Z,9.59
2019-03-31T04:49:21.702Z,9.55
2019-03-31T04:50:21.687Z,9.55
2019-03-31T04:51:21.746Z,9.63
2019-03-31T04:52:21.676Z,9.60
2019-03-31T04:53:21.652Z,9.65
2019-03-31T04:54:21.639Z,9.55
2019-03-31T04:55:21.689Z,9.69
2019-03-31T04:56:21.625Z,9.69
2019-03-31T04:57:21.629Z,9.65
2019-03-31T04:58:21.629Z,9.66
2019-03-31T04:59:21.593Z,9.66
2019-03-31T05:00:21.604Z,9.63
2019-03-31T05:01:21.591Z,9.66
2019-03-31T05:02:21.712Z,9.70
2019-03-31T05:03:21.579Z,9.67
2019-03-31T05:04:21.588Z,9.75
2019-03-31T05:05:21.522Z,9.73
2019-03-31T05:06:21.510Z,9.69
2019-03-31T05:07:21.525Z,9.77
2019-03-31T05:08:21.514Z,9.69
2019-03-31T05:09:21.540Z,9.78
2019-03-31T05:10:21.474Z,9.75
2019-03-31T05:11:21.458Z,9.67
2019-03-31T05:12:21.473Z,9.70
2019-03-31T05:13:21.442Z,9.72
2019-03-31T05:14:21.447Z,9.72
2019-03-31T05:15:21.418Z,9.75
2019-03-31T05:16:21.546Z,9.78
2019-03-31T05:17:21.414Z,9.67
2019-03-31T05:18:21.384Z,9.78
2019-03-31T05:19:21.373Z,9.67
2019-03-31T05:20:21.361Z,9.72
2019-03-31T05:21:21.350Z,9.69
2019-03-31T05:22:21.358Z,9.70
2019-03-31T05:23:21.396Z,9.77
2019-03-31T05:24:21.318Z,9.75
2019-03-31T05:25:21.413Z,9.77
2019-03-31T05:26:21.303Z,9.70
2019-03-31T05:27:29.918Z,9.70
2019-03-31T05:28:29.850Z,9.65
2019-03-31T05:29:30.102Z,9.65
2019-03-31T05:30:29.823Z,9.54
2019-03-31T05:31:28.810Z,9.51
2019-03-31T05:32:21.249Z,9.50
2019-03-31T05:33:21.217Z,9.45
2019-03-31T05:34:21.214Z,9.57
2019-03-31T05:35:21.200Z,9.54
2019-03-31T05:36:21.192Z,9.55
2019-03-31T05:37:21.228Z,9.52
2019-03-31T05:38:21.166Z,9.54
2019-03-31T05:39:21.155Z,9.51
2019-03-31T05:40:21.154Z,9.54
2019-03-31T05:41:21.137Z,9.55
2019-03-31T05:42:21.224Z,9.48
2019-03-31T05:43:21.150Z,9.42
2019-03-31T05:44:21.110Z,9.48
2019-03-31T05:45:21.093Z,9.54
2019-03-31T05:46:21.139Z,9.50
2019-03-31T05:47:21.112Z,9.44
2019-03-31T05:48:21.069Z,9.44
2019-03-31T05:49:21.091Z,9.50
2019-03-31T05:50:21.069Z,9.47
2019-03-31T05:51:21.042Z,9.44
2019-03-31T05:52:21.098Z,9.45
2019-03-31T05:53:21.013Z,9.48
2019-03-31T05:54:20.993Z,9.48
2019-03-31T05:55:20.991Z,9.52
2019-03-31T05:56:20.970Z,9.50
2019-03-31T05:57:20.963Z,9.50
2019-03-31T05:58:20.975Z,9.48
2019-03-31T05:59:20.939Z,9.47
2019-03-31T06:00:20.929Z,9.59
2019-03-31T06:01:20.928Z,9.60
2019-03-31T06:02:20.907Z,9.59
2019-03-31T06:03:20.936Z,9.57
2019-03-31T06:04:32.582Z,9.63
2019-03-31T06:05:21.888Z,9.67
2019-03-31T06:06:20.904Z,9.66
2019-03-31T06:07:20.851Z,9.62
2019-03-31T06:08:20.887Z,9.69
2019-03-31T06:09:20.845Z,9.66
2019-03-31T06:10:20.822Z,9.72
2019-03-31T06:11:20.818Z,9.69
2019-03-31T06:12:20.805Z,9.69
2019-03-31T06:13:20.819Z,9.75
2019-03-31T06:14:20.780Z,9.84
2019-03-31T06:15:20.786Z,9.81
2019-03-31T06:16:20.762Z,9.81
2019-03-31T06:17:20.768Z,9.88
2019-03-31T06:18:20.752Z,9.81
2019-03-31T06:19:20.749Z,9.84
2019-03-31T06:20:20.719Z,9.87
2019-03-31T06:21:20.723Z,9.84
2019-03-31T06:22:20.697Z,9.91
2019-03-31T06:23:20.702Z,9.93
2019-03-31T06:24:20.733Z,9.96
2019-03-31T06:25:20.680Z,9.91
2019-03-31T06:26:20.651Z,10.08
2019-03-31T06:27:20.650Z,10.05
2019-03-31T06:28:20.668Z,10.06
2019-03-31T06:29:20.643Z,10.09
2019-03-31T06:30:20.735Z,10.14
2019-03-31T06:31:20.594Z,10.09
2019-03-31T06:32:20.585Z,10.18
2019-03-31T06:33:20.572Z,10.06
2019-03-31T06:34:20.566Z,10.12
2019-03-31T06:35:20.608Z,10.18
2019-03-31T06:36:20.609Z,10.18
2019-03-31T06:37:20.531Z,10.24
2019-03-31T06:38:20.530Z,10.21
2019-03-31T06:39:20.576Z,10.28
2019-03-31T06:40:20.552Z,10.30
2019-03-31T06:41:20.496Z,10.23
2019-03-31T06:42:20.473Z,10.27
2019-03-31T06:43:20.509Z,10.28
2019-03-31T06:44:20.467Z,10.31
2019-03-31T06:45:20.464Z,10.30
2019-03-31T06:46:20.437Z,10.27
2019-03-31T06:47:20.428Z,10.28
2019-03-31T06:48:20.409Z,10.28
2019-03-31T06:49:20.408Z,10.27
2019-03-31T06:50:30.115Z,10.23
2019-03-31T06:51:20.375Z,10.16
2019-03-31T06:52:20.368Z,10.20
2019-03-31T06:53:20.361Z,10.21
2019-03-31T06:54:20.345Z,10.21
2019-03-31T06:55:20.356Z,10.28
2019-03-31T06:56:20.327Z,10.30
2019-03-31T06:57:20.322Z,10.36
2019-03-31T06:58:20.305Z,10.30
2019-03-31T06:59:20.312Z,10.42
2019-03-31T07:00:20.316Z,10.43
2019-03-31T07:01:20.268Z,10.39
2019-03-31T07:02:20.317Z,10.48
2019-03-31T07:03:20.309Z,10.49
2019-03-31T07:04:20.242Z,10.58
2019-03-31T07:05:20.299Z,10.65
2019-03-31T07:06:20.257Z,10.67
2019-03-31T07:07:23.588Z,10.79
2019-03-31T07:08:20.198Z,10.85
2019-03-31T07:09:20.184Z,10.83
2019-03-31T07:10:20.173Z,10.87
2019-03-31T07:11:20.183Z,10.97
2019-03-31T07:12:20.165Z,10.93
2019-03-31T07:13:20.147Z,10.91
2019-03-31T07:14:20.127Z,10.94
2019-03-31T07:15:20.117Z,11.09
2019-03-31T07:16:20.110Z,11.03
2019-03-31T07:17:20.115Z,11.04
2019-03-31T07:18:20.126Z,11.23
2019-03-31T07:19:20.087Z,11.20
2019-03-31T07:20:20.088Z,11.20
2019-03-31T07:21:20.050Z,11.25
2019-03-31T07:22:20.061Z,11.37
2019-03-31T07:23:20.075Z,11.38
2019-03-31T07:24:20.024Z,11.33
2019-03-31T07:25:20.064Z,11.37
2019-03-31T07:26:20.029Z,11.46
2019-03-31T07:27:19.990Z,11.49
2019-03-31T07:28:20.006Z,11.55
2019-03-31T07:29:19.990Z,11.64
2019-03-31T07:30:19.965Z,11.61
2019-03-31T07:31:19.981Z,11.71
2019-03-31T07:32:19.943Z,11.64
2019-03-31T07:33:19.938Z,11.77
2019-03-31T07:34:19.910Z,11.79
2019-03-31T07:35:19.914Z,11.87
2019-03-31T07:36:19.904Z,11.84
2019-03-31T07:37:19.941Z,11.89
2019-03-31T07:38:19.961Z,11.88
2019-03-31T07:39:20.188Z,11.93
2019-03-31T07:40:20.129Z,11.99
2019-03-31T07:41:20.201Z,12.00
2019-03-31T07:42:19.860Z,12.05
2019-03-31T07:43:19.998Z,12.07
2019-03-31T07:44:19.807Z,12.10
2019-03-31T07:45:19.799Z,12.13
2019-03-31T07:46:19.821Z,12.10
2019-03-31T07:47:19.773Z,12.15
2019-03-31T07:48:19.817Z,12.17
2019-03-31T07:49:19.752Z,12.28
2019-03-31T07:50:19.739Z,12.28
2019-03-31T07:51:27.288Z,12.26
2019-03-31T07:52:28.279Z,12.22
2019-03-31T07:53:19.727Z,12.26
2019-03-31T07:54:19.700Z,12.36
2019-03-31T07:55:19.683Z,12.33
2019-03-31T07:56:19.676Z,12.38
2019-03-31T07:57:19.663Z,12.51
2019-03-31T07:58:19.730Z,12.63
2019-03-31T07:59:19.651Z,12.51
2019-03-31T08:00:19.636Z,12.63
2019-03-31T08:01:19.619Z,12.72
2019-03-31T08:02:19.616Z,12.72
2019-03-31T08:03:19.627Z,12.72
2019-03-31T08:04:19.591Z,12.73
2019-03-31T08:05:32.371Z,12.84
2019-03-31T08:06:20.563Z,12.73
2019-03-31T08:07:19.552Z,12.79
2019-03-31T08:08:19.613Z,12.91
2019-03-31T08:09:19.540Z,12.93
2019-03-31T08:10:19.528Z,12.98
2019-03-31T08:11:19.511Z,13.01
2019-03-31T08:12:19.500Z,12.96
2019-03-31T08:13:19.598Z,12.90
2019-03-31T08:14:19.481Z,12.96
2019-03-31T08:15:19.538Z,12.91
2019-03-31T08:16:19.461Z,12.98
2019-03-31T08:17:19.455Z,13.05
2019-03-31T08:18:19.482Z,13.05
2019-03-31T08:19:20.883Z,13.05
2019-03-31T08:20:19.417Z,13.13
2019-03-31T08:21:19.399Z,13.17
2019-03-31T08:22:19.394Z,13.17
2019-03-31T08:23:19.404Z,13.13
2019-03-31T08:24:19.367Z,13.13
2019-03-31T08:25:19.372Z,13.09
2019-03-31T08:26:19.378Z,13.17
2019-03-31T08:27:19.347Z,13.20
2019-03-31T08:28:19.411Z,13.20
2019-03-31T08:29:19.334Z,13.39
2019-03-31T08:30:19.303Z,13.43
2019-03-31T08:31:19.292Z,13.53
2019-03-31T08:32:19.298Z,13.46
2019-03-31T08:33:19.334Z,13.45
2019-03-31T08:34:19.352Z,13.57
2019-03-31T08:35:19.248Z,13.51
2019-03-31T08:36:19.242Z,13.63
2019-03-31T08:37:19.236Z,13.71
2019-03-31T08:38:19.243Z,13.83
2019-03-31T08:39:19.208Z,13.75
2019-03-31T08:40:19.197Z,13.86
2019-03-31T08:41:19.182Z,13.83
2019-03-31T08:42:19.172Z,13.93
2019-03-31T08:43:19.235Z,13.94
2019-03-31T08:44:19.198Z,13.97
2019-03-31T08:45:19.145Z,13.96
2019-03-31T08:46:19.137Z,14.15
2019-03-31T08:47:19.216Z,14.12
2019-03-31T08:48:19.124Z,14.18
2019-03-31T08:49:19.106Z,14.26
2019-03-31T08:50:19.090Z,14.33
2019-03-31T08:51:19.090Z,14.38
2019-03-31T08:52:19.067Z,14.41
2019-03-31T08:53:19.081Z,14.53
2019-03-31T08:54:19.043Z,14.58
2019-03-31T08:55:19.063Z,14.63
2019-03-31T08:56:19.021Z,14.64
2019-03-31T08:57:19.011Z,14.74
2019-03-31T08:58:19.022Z,14.82
2019-03-31T08:59:19.016Z,14.77
2019-03-31T09:00:18.978Z,14.90
2019-03-31T09:01:18.968Z,14.89
2019-03-31T09:02:18.964Z,14.99
2019-03-31T09:03:19.070Z,14.97
2019-03-31T09:04:18.980Z,14.97
2019-03-31T09:05:18.927Z,14.96
2019-03-31T09:06:18.979Z,15.05
2019-03-31T09:07:18.913Z,15.15
2019-03-31T09:08:18.906Z,15.19
2019-03-31T09:09:18.913Z,15.30
2019-03-31T09:10:18.876Z,15.29
2019-03-31T09:11:18.862Z,15.44
2019-03-31T09:12:18.865Z,15.54
2019-03-31T09:13:18.881Z,15.48
2019-03-31T09:14:18.826Z,15.47
2019-03-31T09:15:26.412Z,15.59
2019-03-31T09:16:18.802Z,15.59
2019-03-31T09:17:18.790Z,15.73
2019-03-31T09:18:18.785Z,15.85
2019-03-31T09:19:18.785Z,15.84
2019-03-31T09:20:18.770Z,15.99
2019-03-31T09:21:18.774Z,16.00
2019-03-31T09:22:18.737Z,16.09
2019-03-31T09:23:18.731Z,16.09
2019-03-31T09:24:18.737Z,16.09
2019-03-31T09:25:18.706Z,16.28
2019-03-31T09:26:18.726Z,16.39
2019-03-31T09:27:18.716Z,16.51
2019-03-31T09:28:18.675Z,16.61
2019-03-31T09:29:18.732Z,16.61
2019-03-31T09:30:18.708Z,16.64
2019-03-31T09:31:18.640Z,16.80
2019-03-31T09:32:18.648Z,17.19
2019-03-31T09:33:18.635Z,17.35
2019-03-31T09:34:18.629Z,17.54
2019-03-31T09:35:18.599Z,17.56
2019-03-31T09:36:18.587Z,17.73
2019-03-31T09:37:18.576Z,17.57
2019-03-31T09:38:18.596Z,17.62
2019-03-31T09:39:18.595Z,17.84
2019-03-31T09:40:18.554Z,18.01
2019-03-31T09:41:18.537Z,17.83
2019-03-31T09:42:18.520Z,18.41
2019-03-31T09:43:18.521Z,18.83
2019-03-31T09:44:18.523Z,19.62
2019-03-31T09:45:18.495Z,20.09
2019-03-31T09:46:18.525Z,20.71
2019-03-31T09:47:18.466Z,21.03
2019-03-31T09:48:18.458Z,21.45
2019-03-31T09:49:18.487Z,21.62
2019-03-31T09:50:18.450Z,21.51
2019-03-31T09:51:18.424Z,20.58
2019-03-31T09:52:18.430Z,20.30
2019-03-31T09:53:18.402Z,20.61
2019-03-31T09:54:18.419Z,20.58
2019-03-31T09:55:18.399Z,21.14
2019-03-31T09:56:25.935Z,21.22
2019-03-31T09:57:26.951Z,20.74
2019-03-31T09:58:25.907Z,21.07
2019-03-31T09:59:18.355Z,21.35
2019-03-31T10:00:25.875Z,21.18
2019-03-31T10:01:26.877Z,20.30
2019-03-31T10:02:18.305Z,19.77
2019-03-31T10:03:18.295Z,19.42
2019-03-31T10:04:18.335Z,19.22
2019-03-31T10:05:18.273Z,19.00
2019-03-31T10:06:29.693Z,18.63
2019-03-31T10:07:19.255Z,18.42
2019-03-31T10:08:21.815Z,18.24
2019-03-31T10:09:18.253Z,18.15
2019-03-31T10:10:18.275Z,17.91
2019-03-31T10:11:18.216Z,18.01
2019-03-31T10:12:18.279Z,17.88
2019-03-31T10:13:18.194Z,17.63
2019-03-31T10:14:18.210Z,17.50
2019-03-31T10:15:18.183Z,17.39
2019-03-31T10:16:18.267Z,17.50
2019-03-31T10:17:18.148Z,17.68
2019-03-31T10:18:18.473Z,17.54
2019-03-31T10:19:18.181Z,17.52
2019-03-31T10:20:18.145Z,17.47
2019-03-31T10:21:18.112Z,17.20
2019-03-31T10:22:18.094Z,17.12
2019-03-31T10:23:18.116Z,17.06
2019-03-31T10:24:18.101Z,16.84
2019-03-31T10:25:18.061Z,16.70
2019-03-31T10:26:31.113Z,16.55
2019-03-31T10:27:19.046Z,16.47
2019-03-31T10:28:18.027Z,16.47
2019-03-31T10:29:18.059Z,16.42
2019-03-31T10:30:18.011Z,16.37
2019-03-31T10:31:18.003Z,16.24
2019-03-31T10:32:18.021Z,16.22
2019-03-31T10:33:18.006Z,16.10
2019-03-31T10:34:18.041Z,16.02
2019-03-31T10:35:17.994Z,16.00
2019-03-31T10:36:17.985Z,15.81
2019-03-31T10:37:18.043Z,15.83
2019-03-31T10:38:17.925Z,15.84
2019-03-31T10:39:17.930Z,15.88
2019-03-31T10:40:17.900Z,15.83
2019-03-31T10:41:17.949Z,15.72
2019-03-31T10:42:17.878Z,15.52
2019-03-31T10:43:17.866Z,15.58
2019-03-31T10:44:17.882Z,15.40
2019-03-31T10:45:17.866Z,15.45
2019-03-31T10:46:17.836Z,15.38
2019-03-31T10:47:17.837Z,15.41
2019-03-31T10:48:20.960Z,15.45
2019-03-31T10:49:17.824Z,15.41
2019-03-31T10:50:17.788Z,15.48
2019-03-31T10:51:17.782Z,15.27
2019-03-31T10:52:17.789Z,15.14
2019-03-31T10:53:17.763Z,14.95
2019-03-31T10:54:17.767Z,14.97
2019-03-31T10:55:17.797Z,15.01
2019-03-31T10:56:17.726Z,14.97
2019-03-31T10:57:17.722Z,14.93
2019-03-31T10:58:17.710Z,14.89
2019-03-31T10:59:17.745Z,14.89
2019-03-31T11:00:17.692Z,14.85
2019-03-31T11:01:17.674Z,14.77
2019-03-31T11:02:17.663Z,14.67
2019-03-31T11:03:17.660Z,14.79
2019-03-31T11:04:17.668Z,14.87
2019-03-31T11:05:17.637Z,14.78
2019-03-31T11:06:17.678Z,14.92
2019-03-31T11:07:17.615Z,14.92
2019-03-31T11:08:17.609Z,15.03
2019-03-31T11:09:17.611Z,15.14
2019-03-31T11:10:17.758Z,15.03
2019-03-31T11:11:17.570Z,14.69
2019-03-31T11:12:17.557Z,14.59
2019-03-31T11:13:17.556Z,14.59
2019-03-31T11:14:17.558Z,14.59
2019-03-31T11:15:17.606Z,14.51
2019-03-31T11:16:17.559Z,14.28
2019-03-31T11:17:17.508Z,14.05
2019-03-31T11:18:17.506Z,13.88
2019-03-31T11:19:17.538Z,13.93
2019-03-31T11:20:17.482Z,13.98
2019-03-31T11:21:17.467Z,14.00
2019-03-31T11:22:17.452Z,13.85
2019-03-31T11:23:17.452Z,13.88
2019-03-31T11:24:17.448Z,13.90
2019-03-31T11:25:22.074Z,13.80
2019-03-31T11:26:18.431Z,13.98
2019-03-31T11:27:17.413Z,14.22
2019-03-31T11:28:17.387Z,14.49
2019-03-31T11:29:17.403Z,14.74
2019-03-31T11:30:17.387Z,14.95
2019-03-31T11:31:18.057Z,15.12
2019-03-31T11:32:17.352Z,15.15
2019-03-31T11:33:17.354Z,15.30
2019-03-31T11:34:19.651Z,15.52
2019-03-31T11:35:17.317Z,15.85
2019-03-31T11:36:17.303Z,16.17
2019-03-31T11:37:17.325Z,16.34
2019-03-31T11:38:17.287Z,16.37
2019-03-31T11:39:17.291Z,16.40
2019-03-31T11:40:17.290Z,16.57
2019-03-31T11:41:17.274Z,16.51
2019-03-31T11:42:17.263Z,16.42
2019-03-31T11:43:25.777Z,16.51
2019-03-31T11:44:17.228Z,16.40
2019-03-31T11:45:17.238Z,16.08
2019-03-31T11:46:17.224Z,15.98
2019-03-31T11:47:17.177Z,15.81
2019-03-31T11:48:17.180Z,15.81
2019-03-31T11:49:17.216Z,15.73
2019-03-31T11:50:17.156Z,15.72
2019-03-31T11:51:17.136Z,15.43
2019-03-31T11:52:17.130Z,15.19
2019-03-31T11:53:17.120Z,15.01
2019-03-31T11:54:17.159Z,14.86
2019-03-31T11:55:17.112Z,14.78
2019-03-31T11:56:17.095Z,14.69
2019-03-31T11:57:17.663Z,14.77
2019-03-31T11:58:17.077Z,14.85
2019-03-31T11:59:17.061Z,14.92
2019-03-31T12:00:17.063Z,14.77
2019-03-31T12:01:17.102Z,14.66
2019-03-31T12:02:27.134Z,14.71
2019-03-31T12:03:18.005Z,14.97
2019-03-31T12:04:16.993Z,15.12
2019-03-31T12:05:17.020Z,15.14
2019-03-31T12:06:17.038Z,15.26
2019-03-31T12:07:27.176Z,15.59
2019-03-31T12:08:17.979Z,15.85
2019-03-31T12:09:17.399Z,15.93
2019-03-31T12:10:19.775Z,16.16
2019-03-31T12:11:16.966Z,16.10
2019-03-31T12:12:16.919Z,16.13
2019-03-31T12:13:16.920Z,15.85
2019-03-31T12:14:16.885Z,15.50
2019-03-31T12:15:16.897Z,15.52
2019-03-31T12:16:16.877Z,15.62
2019-03-31T12:17:16.884Z,15.85
2019-03-31T12:18:16.849Z,15.81
2019-03-31T12:19:16.856Z,16.08
2019-03-31T12:20:16.836Z,16.33
2019-03-31T12:21:16.845Z,16.39
2019-03-31T12:22:16.801Z,16.46
2019-03-31T12:23:16.925Z,16.51
2019-03-31T12:24:16.792Z,16.47
2019-03-31T12:26:45.179Z,16.09
2019-03-31T12:27:45.153Z,16.16
2019-03-31T12:28:45.139Z,16.08
2019-03-31T12:29:54.760Z,16.37
2019-03-31T12:30:45.117Z,16.34
2019-03-31T12:31:45.107Z,16.25
2019-03-31T12:32:45.110Z,16.18
2019-03-31T12:33:45.088Z,16.18
2019-03-31T12:34:45.094Z,16.34
2019-03-31T12:35:45.060Z,16.42
2019-03-31T12:36:45.103Z,16.47
2019-03-31T12:37:45.042Z,15.85
2019-03-31T12:38:45.154Z,15.58
2019-03-31T12:39:45.045Z,15.56
2019-03-31T12:40:45.027Z,15.25
2019-03-31T12:41:44.998Z,15.47
2019-03-31T12:42:44.987Z,15.54
2019-03-31T12:43:44.977Z,15.50
2019-03-31T12:44:44.986Z,15.45
2019-03-31T12:45:44.956Z,15.51
2019-03-31T12:46:44.944Z,15.72
2019-03-31T12:47:44.932Z,15.93
2019-03-31T12:48:44.920Z,15.77
2019-03-31T12:49:44.936Z,16.06
2019-03-31T12:50:44.900Z,15.80
2019-03-31T12:51:44.912Z,16.10
2019-03-31T12:52:47.468Z,16.10
2019-03-31T12:53:44.865Z,16.05
2019-03-31T12:54:44.898Z,16.32
2019-03-31T12:55:59.148Z,16.44
2019-03-31T12:56:45.834Z,16.70
2019-03-31T12:57:44.846Z,16.98
2019-03-31T12:58:44.816Z,17.12